sensor_id;sensor_type;location;lat;lon;timestamp;P1;durP1;ratioP1;P2;durP2;ratioP2
11427;SDS011;5770;44.504;11.346;2022-09-27T00:05:07;5.13;;;2.22;;
11427;SDS011;5770;44.504;11.346;2022-09-27T00:07:34;5.43;;;2.20;;
11427;SDS011;5770;44.504;11.346;2022-09-27T00:10:01;7.60;;;2.33;;
11427;SDS011;5770;44.504;11.346;2022-09-27T00:12:29;4.25;;;2.38;;
11427;SDS011;5770;44.504;11.346;2022-09-27T00:14:58;4.78;;;2.35;;
11427;SDS011;5770;44.504;11.346;2022-09-27T00:17:26;13.65;;;2.65;;
11427;SDS011;5770;44.504;11.346;2022-09-27T00:19:53;5.22;;;2.33;;
11427;SDS011;5770;44.504;11.346;2022-09-27T00:22:21;5.60;;;2.42;;
11427;SDS011;5770;44.504;11.346;2022-09-27T00:24:48;5.82;;;2.63;;
11427;SDS011;5770;44.504;11.346;2022-09-27T00:27:16;3.80;;;2.35;;
11427;SDS011;5770;44.504;11.346;2022-09-27T00:29:44;5.47;;;2.03;;
11427;SDS011;5770;44.504;11.346;2022-09-27T00:32:13;7.05;;;2.53;;
11427;SDS011;5770;44.504;11.346;2022-09-27T00:34:40;4.70;;;2.30;;
11427;SDS011;5770;44.504;11.346;2022-09-27T00:37:07;7.25;;;2.33;;
11427;SDS011;5770;44.504;11.346;2022-09-27T00:39:35;5.15;;;2.28;;
11427;SDS011;5770;44.504;11.346;2022-09-27T00:42:04;8.65;;;2.67;;
11427;SDS011;5770;44.504;11.346;2022-09-27T00:47:33;7.85;;;2.22;;
11427;SDS011;5770;44.504;11.346;2022-09-27T00:50:04;4.90;;;2.30;;
11427;SDS011;5770;44.504;11.346;2022-09-27T00:52:37;7.68;;;2.35;;
11427;SDS011;5770;44.504;11.346;2022-09-27T00:55:08;5.22;;;2.00;;
11427;SDS011;5770;44.504;11.346;2022-09-27T00:57:36;5.55;;;2.35;;
11427;SDS011;5770;44.504;11.346;2022-09-27T01:00:05;4.93;;;2.25;;
11427;SDS011;5770;44.504;11.346;2022-09-27T01:02:36;4.70;;;2.15;;
11427;SDS011;5770;44.504;11.346;2022-09-27T01:05:06;7.05;;;2.30;;
11427;SDS011;5770;44.504;11.346;2022-09-27T01:07:35;6.90;;;2.50;;
11427;SDS011;5770;44.504;11.346;2022-09-27T01:10:03;8.38;;;2.83;;
11427;SDS011;5770;44.504;11.346;2022-09-27T01:12:34;4.70;;;2.83;;
11427;SDS011;5770;44.504;11.346;2022-09-27T01:15:05;5.75;;;2.70;;
11427;SDS011;5770;44.504;11.346;2022-09-27T01:17:42;6.13;;;2.47;;
11427;SDS011;5770;44.504;11.346;2022-09-27T01:23:15;4.35;;;2.60;;
11427;SDS011;5770;44.504;11.346;2022-09-27T01:25:49;4.80;;;2.75;;
11427;SDS011;5770;44.504;11.346;2022-09-27T01:28:23;5.15;;;2.65;;
11427;SDS011;5770;44.504;11.346;2022-09-27T01:30:59;9.15;;;2.55;;
11427;SDS011;5770;44.504;11.346;2022-09-27T01:33:30;5.60;;;2.63;;
11427;SDS011;5770;44.504;11.346;2022-09-27T01:36:19;4.53;;;2.20;;
11427;SDS011;5770;44.504;11.346;2022-09-27T01:38:53;4.50;;;1.90;;
11427;SDS011;5770;44.504;11.346;2022-09-27T01:41:24;4.30;;;2.50;;
11427;SDS011;5770;44.504;11.346;2022-09-27T01:43:54;4.47;;;2.38;;
11427;SDS011;5770;44.504;11.346;2022-09-27T01:46:24;4.50;;;2.33;;
11427;SDS011;5770;44.504;11.346;2022-09-27T01:48:52;5.57;;;2.80;;
11427;SDS011;5770;44.504;11.346;2022-09-27T01:51:21;8.05;;;2.40;;
11427;SDS011;5770;44.504;11.346;2022-09-27T01:53:52;6.47;;;2.33;;
11427;SDS011;5770;44.504;11.346;2022-09-27T01:56:21;6.05;;;2.88;;
11427;SDS011;5770;44.504;11.346;2022-09-27T01:58:52;4.45;;;2.33;;
11427;SDS011;5770;44.504;11.346;2022-09-27T02:01:21;6.15;;;2.40;;
11427;SDS011;5770;44.504;11.346;2022-09-27T02:03:54;9.07;;;2.60;;
11427;SDS011;5770;44.504;11.346;2022-09-27T02:06:24;4.90;;;2.20;;
11427;SDS011;5770;44.504;11.346;2022-09-27T02:08:56;4.40;;;2.38;;
11427;SDS011;5770;44.504;11.346;2022-09-27T02:11:25;6.97;;;2.47;;
11427;SDS011;5770;44.504;11.346;2022-09-27T02:13:53;5.80;;;2.60;;
11427;SDS011;5770;44.504;11.346;2022-09-27T02:16:22;9.85;;;3.25;;
11427;SDS011;5770;44.504;11.346;2022-09-27T02:19:01;3.95;;;2.30;;
11427;SDS011;5770;44.504;11.346;2022-09-27T02:21:36;6.57;;;2.50;;
11427;SDS011;5770;44.504;11.346;2022-09-27T02:24:08;4.80;;;2.20;;
11427;SDS011;5770;44.504;11.346;2022-09-27T02:26:38;5.90;;;2.33;;
11427;SDS011;5770;44.504;11.346;2022-09-27T02:29:09;4.88;;;2.10;;
11427;SDS011;5770;44.504;11.346;2022-09-27T02:31:38;3.78;;;2.05;;
11427;SDS011;5770;44.504;11.346;2022-09-27T02:34:06;3.92;;;2.22;;
11427;SDS011;5770;44.504;11.346;2022-09-27T02:36:35;3.55;;;2.13;;
11427;SDS011;5770;44.504;11.346;2022-09-27T02:39:03;6.57;;;2.40;;
11427;SDS011;5770;44.504;11.346;2022-09-27T02:41:30;3.05;;;2.30;;
11427;SDS011;5770;44.504;11.346;2022-09-27T02:43:58;5.40;;;2.50;;
11427;SDS011;5770;44.504;11.346;2022-09-27T02:46:42;4.88;;;2.25;;
11427;SDS011;5770;44.504;11.346;2022-09-27T02:49:13;4.82;;;2.17;;
11427;SDS011;5770;44.504;11.346;2022-09-27T02:51:46;4.75;;;2.13;;
11427;SDS011;5770;44.504;11.346;2022-09-27T02:54:23;5.43;;;2.42;;
11427;SDS011;5770;44.504;11.346;2022-09-27T02:56:55;4.60;;;2.00;;
11427;SDS011;5770;44.504;11.346;2022-09-27T02:59:33;4.90;;;2.65;;
11427;SDS011;5770;44.504;11.346;2022-09-27T03:02:12;4.18;;;2.45;;
11427;SDS011;5770;44.504;11.346;2022-09-27T03:04:42;4.40;;;2.40;;
11427;SDS011;5770;44.504;11.346;2022-09-27T03:07:11;5.70;;;2.30;;
11427;SDS011;5770;44.504;11.346;2022-09-27T03:09:40;5.10;;;2.80;;
11427;SDS011;5770;44.504;11.346;2022-09-27T03:12:10;5.97;;;2.45;;
11427;SDS011;5770;44.504;11.346;2022-09-27T03:14:37;5.10;;;2.42;;
11427;SDS011;5770;44.504;11.346;2022-09-27T03:17:04;4.88;;;2.60;;
11427;SDS011;5770;44.504;11.346;2022-09-27T03:19:33;4.55;;;2.40;;
11427;SDS011;5770;44.504;11.346;2022-09-27T03:22:00;5.22;;;2.50;;
11427;SDS011;5770;44.504;11.346;2022-09-27T03:24:27;7.10;;;2.50;;
11427;SDS011;5770;44.504;11.346;2022-09-27T03:26:54;4.93;;;2.35;;
11427;SDS011;5770;44.504;11.346;2022-09-27T03:29:22;3.90;;;2.15;;
11427;SDS011;5770;44.504;11.346;2022-09-27T03:31:49;4.45;;;2.53;;
11427;SDS011;5770;44.504;11.346;2022-09-27T03:34:17;6.10;;;2.60;;
11427;SDS011;5770;44.504;11.346;2022-09-27T03:36:45;6.18;;;2.30;;
11427;SDS011;5770;44.504;11.346;2022-09-27T03:39:13;6.55;;;2.40;;
11427;SDS011;5770;44.504;11.346;2022-09-27T03:41:40;4.45;;;2.67;;
11427;SDS011;5770;44.504;11.346;2022-09-27T03:44:08;4.30;;;2.60;;
11427;SDS011;5770;44.504;11.346;2022-09-27T03:46:35;3.85;;;2.20;;
11427;SDS011;5770;44.504;11.346;2022-09-27T03:49:02;4.63;;;2.30;;
11427;SDS011;5770;44.504;11.346;2022-09-27T03:51:30;5.00;;;2.60;;
11427;SDS011;5770;44.504;11.346;2022-09-27T03:53:58;3.60;;;2.80;;
11427;SDS011;5770;44.504;11.346;2022-09-27T03:56:26;6.20;;;2.55;;
11427;SDS011;5770;44.504;11.346;2022-09-27T03:58:53;7.50;;;2.60;;
11427;SDS011;5770;44.504;11.346;2022-09-27T04:01:20;6.47;;;2.65;;
11427;SDS011;5770;44.504;11.346;2022-09-27T04:03:47;5.95;;;2.83;;
11427;SDS011;5770;44.504;11.346;2022-09-27T04:06:14;6.55;;;2.78;;
11427;SDS011;5770;44.504;11.346;2022-09-27T04:08:42;6.07;;;2.67;;
11427;SDS011;5770;44.504;11.346;2022-09-27T04:11:10;5.53;;;2.75;;
11427;SDS011;5770;44.504;11.346;2022-09-27T04:13:38;4.45;;;2.53;;
11427;SDS011;5770;44.504;11.346;2022-09-27T04:16:05;4.40;;;2.30;;
11427;SDS011;5770;44.504;11.346;2022-09-27T04:18:33;4.07;;;2.60;;
11427;SDS011;5770;44.504;11.346;2022-09-27T04:21:00;9.05;;;2.70;;
11427;SDS011;5770;44.504;11.346;2022-09-27T04:23:27;4.22;;;2.72;;
11427;SDS011;5770;44.504;11.346;2022-09-27T04:25:55;6.05;;;2.97;;
11427;SDS011;5770;44.504;11.346;2022-09-27T04:28:23;5.85;;;3.15;;
11427;SDS011;5770;44.504;11.346;2022-09-27T04:30:51;7.72;;;3.05;;
11427;SDS011;5770;44.504;11.346;2022-09-27T04:33:18;6.68;;;3.25;;
11427;SDS011;5770;44.504;11.346;2022-09-27T04:35:45;4.63;;;2.80;;
11427;SDS011;5770;44.504;11.346;2022-09-27T04:38:30;5.50;;;2.80;;
11427;SDS011;5770;44.504;11.346;2022-09-27T04:40:57;11.07;;;3.25;;
11427;SDS011;5770;44.504;11.346;2022-09-27T04:43:30;5.68;;;3.05;;
11427;SDS011;5770;44.504;11.346;2022-09-27T04:45:59;4.75;;;3.00;;
11427;SDS011;5770;44.504;11.346;2022-09-27T04:48:26;4.55;;;3.10;;
11427;SDS011;5770;44.504;11.346;2022-09-27T04:50:57;7.75;;;3.50;;
11427;SDS011;5770;44.504;11.346;2022-09-27T04:53:24;5.95;;;2.83;;
11427;SDS011;5770;44.504;11.346;2022-09-27T04:55:52;6.80;;;3.30;;
11427;SDS011;5770;44.504;11.346;2022-09-27T04:58:22;7.25;;;3.13;;
11427;SDS011;5770;44.504;11.346;2022-09-27T05:01:00;4.38;;;3.42;;
11427;SDS011;5770;44.504;11.346;2022-09-27T05:03:28;6.70;;;2.97;;
11427;SDS011;5770;44.504;11.346;2022-09-27T05:05:55;5.57;;;3.30;;
11427;SDS011;5770;44.504;11.346;2022-09-27T05:08:22;5.90;;;3.33;;
11427;SDS011;5770;44.504;11.346;2022-09-27T05:10:49;6.03;;;3.65;;
11427;SDS011;5770;44.504;11.346;2022-09-27T05:13:16;8.05;;;3.05;;
11427;SDS011;5770;44.504;11.346;2022-09-27T05:15:43;6.60;;;3.17;;
11427;SDS011;5770;44.504;11.346;2022-09-27T05:18:12;7.90;;;3.42;;
11427;SDS011;5770;44.504;11.346;2022-09-27T05:20:40;8.10;;;3.22;;
11427;SDS011;5770;44.504;11.346;2022-09-27T05:23:07;5.63;;;2.83;;
11427;SDS011;5770;44.504;11.346;2022-09-27T05:25:35;5.63;;;2.80;;
11427;SDS011;5770;44.504;11.346;2022-09-27T05:28:02;7.00;;;3.50;;
11427;SDS011;5770;44.504;11.346;2022-09-27T05:30:30;8.25;;;3.58;;
11427;SDS011;5770;44.504;11.346;2022-09-27T05:32:57;6.38;;;3.40;;
11427;SDS011;5770;44.504;11.346;2022-09-27T05:35:25;7.07;;;3.72;;
11427;SDS011;5770;44.504;11.346;2022-09-27T05:37:53;10.38;;;4.07;;
11427;SDS011;5770;44.504;11.346;2022-09-27T05:40:20;9.40;;;3.47;;
11427;SDS011;5770;44.504;11.346;2022-09-27T05:42:49;8.18;;;3.47;;
11427;SDS011;5770;44.504;11.346;2022-09-27T05:45:16;8.52;;;3.70;;
11427;SDS011;5770;44.504;11.346;2022-09-27T05:47:51;6.65;;;3.97;;
11427;SDS011;5770;44.504;11.346;2022-09-27T05:50:18;7.53;;;3.33;;
11427;SDS011;5770;44.504;11.346;2022-09-27T05:52:47;8.98;;;4.57;;
11427;SDS011;5770;44.504;11.346;2022-09-27T05:55:14;15.20;;;5.57;;
11427;SDS011;5770;44.504;11.346;2022-09-27T05:57:41;8.95;;;3.50;;
11427;SDS011;5770;44.504;11.346;2022-09-27T06:00:19;7.25;;;3.35;;
11427;SDS011;5770;44.504;11.346;2022-09-27T06:02:51;6.75;;;3.67;;
11427;SDS011;5770;44.504;11.346;2022-09-27T06:05:20;11.30;;;3.72;;
11427;SDS011;5770;44.504;11.346;2022-09-27T06:07:49;8.23;;;4.05;;
11427;SDS011;5770;44.504;11.346;2022-09-27T06:10:17;5.45;;;3.60;;
11427;SDS011;5770;44.504;11.346;2022-09-27T06:12:45;8.93;;;3.97;;
11427;SDS011;5770;44.504;11.346;2022-09-27T06:15:12;9.98;;;3.97;;
11427;SDS011;5770;44.504;11.346;2022-09-27T06:17:39;7.50;;;3.17;;
11427;SDS011;5770;44.504;11.346;2022-09-27T06:20:07;12.82;;;3.90;;
11427;SDS011;5770;44.504;11.346;2022-09-27T06:22:35;10.43;;;3.92;;
11427;SDS011;5770;44.504;11.346;2022-09-27T06:25:04;7.72;;;3.47;;
11427;SDS011;5770;44.504;11.346;2022-09-27T06:27:33;7.88;;;3.45;;
11427;SDS011;5770;44.504;11.346;2022-09-27T06:30:00;9.40;;;3.40;;
11427;SDS011;5770;44.504;11.346;2022-09-27T06:32:28;7.03;;;3.08;;
11427;SDS011;5770;44.504;11.346;2022-09-27T06:34:55;11.13;;;3.63;;
11427;SDS011;5770;44.504;11.346;2022-09-27T06:37:23;12.48;;;3.30;;
11427;SDS011;5770;44.504;11.346;2022-09-27T06:39:51;9.68;;;3.10;;
11427;SDS011;5770;44.504;11.346;2022-09-27T06:42:19;9.20;;;3.10;;
11427;SDS011;5770;44.504;11.346;2022-09-27T06:44:46;7.82;;;3.10;;
11427;SDS011;5770;44.504;11.346;2022-09-27T06:47:14;16.25;;;3.25;;
11427;SDS011;5770;44.504;11.346;2022-09-27T06:49:41;11.73;;;2.80;;
11427;SDS011;5770;44.504;11.346;2022-09-27T06:52:08;11.25;;;3.20;;
11427;SDS011;5770;44.504;11.346;2022-09-27T06:54:36;12.65;;;3.30;;
11427;SDS011;5770;44.504;11.346;2022-09-27T06:57:03;16.75;;;4.10;;
11427;SDS011;5770;44.504;11.346;2022-09-27T06:59:32;10.02;;;3.80;;
11427;SDS011;5770;44.504;11.346;2022-09-27T07:02:16;14.15;;;4.10;;
11427;SDS011;5770;44.504;11.346;2022-09-27T07:04:44;11.10;;;4.70;;
11427;SDS011;5770;44.504;11.346;2022-09-27T07:07:11;11.93;;;4.63;;
11427;SDS011;5770;44.504;11.346;2022-09-27T07:09:38;10.23;;;4.35;;
11427;SDS011;5770;44.504;11.346;2022-09-27T07:12:05;14.80;;;4.30;;
11427;SDS011;5770;44.504;11.346;2022-09-27T07:14:33;15.95;;;4.72;;
11427;SDS011;5770;44.504;11.346;2022-09-27T07:17:01;14.50;;;4.78;;
11427;SDS011;5770;44.504;11.346;2022-09-27T07:19:28;17.48;;;8.43;;
11427;SDS011;5770;44.504;11.346;2022-09-27T07:21:55;12.45;;;6.30;;
11427;SDS011;5770;44.504;11.346;2022-09-27T07:24:23;12.88;;;4.97;;
11427;SDS011;5770;44.504;11.346;2022-09-27T07:26:50;13.45;;;7.22;;
11427;SDS011;5770;44.504;11.346;2022-09-27T07:29:17;20.65;;;10.30;;
11427;SDS011;5770;44.504;11.346;2022-09-27T07:31:45;19.00;;;7.28;;
11427;SDS011;5770;44.504;11.346;2022-09-27T07:34:12;13.80;;;5.40;;
11427;SDS011;5770;44.504;11.346;2022-09-27T07:36:42;16.08;;;5.40;;
11427;SDS011;5770;44.504;11.346;2022-09-27T07:39:09;16.88;;;5.75;;
11427;SDS011;5770;44.504;11.346;2022-09-27T07:41:36;11.65;;;5.28;;
11427;SDS011;5770;44.504;11.346;2022-09-27T07:44:04;12.57;;;4.47;;
11427;SDS011;5770;44.504;11.346;2022-09-27T07:46:32;7.80;;;3.85;;
11427;SDS011;5770;44.504;11.346;2022-09-27T07:49:00;7.82;;;3.75;;
11427;SDS011;5770;44.504;11.346;2022-09-27T07:51:27;9.80;;;4.20;;
11427;SDS011;5770;44.504;11.346;2022-09-27T07:53:54;6.53;;;3.75;;
11427;SDS011;5770;44.504;11.346;2022-09-27T07:56:22;7.38;;;3.97;;
11427;SDS011;5770;44.504;11.346;2022-09-27T07:58:49;7.80;;;4.28;;
11427;SDS011;5770;44.504;11.346;2022-09-27T08:01:16;9.77;;;4.57;;
11427;SDS011;5770;44.504;11.346;2022-09-27T08:03:43;9.75;;;4.53;;
11427;SDS011;5770;44.504;11.346;2022-09-27T08:06:11;8.32;;;4.40;;
11427;SDS011;5770;44.504;11.346;2022-09-27T08:08:38;9.20;;;4.50;;
11427;SDS011;5770;44.504;11.346;2022-09-27T08:11:09;13.57;;;4.50;;
11427;SDS011;5770;44.504;11.346;2022-09-27T08:13:39;10.02;;;4.15;;
11427;SDS011;5770;44.504;11.346;2022-09-27T08:16:06;9.80;;;3.70;;
11427;SDS011;5770;44.504;11.346;2022-09-27T08:18:35;8.48;;;4.28;;
11427;SDS011;5770;44.504;11.346;2022-09-27T08:21:02;10.15;;;4.03;;
11427;SDS011;5770;44.504;11.346;2022-09-27T08:23:31;7.70;;;3.50;;
11427;SDS011;5770;44.504;11.346;2022-09-27T08:25:58;8.68;;;3.90;;
11427;SDS011;5770;44.504;11.346;2022-09-27T08:28:25;14.65;;;3.65;;
11427;SDS011;5770;44.504;11.346;2022-09-27T08:30:53;10.40;;;3.60;;
11427;SDS011;5770;44.504;11.346;2022-09-27T08:33:20;8.07;;;3.42;;
11427;SDS011;5770;44.504;11.346;2022-09-27T08:35:49;7.20;;;3.65;;
11427;SDS011;5770;44.504;11.346;2022-09-27T08:38:17;8.68;;;3.47;;
11427;SDS011;5770;44.504;11.346;2022-09-27T08:40:50;10.48;;;3.58;;
11427;SDS011;5770;44.504;11.346;2022-09-27T08:43:22;7.22;;;3.50;;
11427;SDS011;5770;44.504;11.346;2022-09-27T08:46:01;7.72;;;3.63;;
11427;SDS011;5770;44.504;11.346;2022-09-27T08:48:40;5.90;;;3.28;;
11427;SDS011;5770;44.504;11.346;2022-09-27T08:51:09;7.05;;;2.95;;
11427;SDS011;5770;44.504;11.346;2022-09-27T08:53:40;5.35;;;3.50;;
11427;SDS011;5770;44.504;11.346;2022-09-27T08:56:12;6.68;;;3.10;;
11427;SDS011;5770;44.504;11.346;2022-09-27T08:58:47;5.38;;;3.05;;
11427;SDS011;5770;44.504;11.346;2022-09-27T09:01:17;15.18;;;3.97;;
11427;SDS011;5770;44.504;11.346;2022-09-27T09:03:45;8.85;;;3.67;;
11427;SDS011;5770;44.504;11.346;2022-09-27T09:06:16;7.68;;;3.50;;
11427;SDS011;5770;44.504;11.346;2022-09-27T09:08:53;7.97;;;3.55;;
11427;SDS011;5770;44.504;11.346;2022-09-27T09:11:37;11.52;;;3.83;;
11427;SDS011;5770;44.504;11.346;2022-09-27T09:14:56;4.63;;;3.10;;
11427;SDS011;5770;44.504;11.346;2022-09-27T09:17:36;9.57;;;2.92;;
11427;SDS011;5770;44.504;11.346;2022-09-27T09:20:15;5.93;;;2.95;;
11427;SDS011;5770;44.504;11.346;2022-09-27T09:22:51;9.27;;;3.70;;
11427;SDS011;5770;44.504;11.346;2022-09-27T09:25:32;12.68;;;3.17;;
11427;SDS011;5770;44.504;11.346;2022-09-27T09:28:14;7.28;;;2.53;;
11427;SDS011;5770;44.504;11.346;2022-09-27T09:30:45;7.38;;;2.42;;
11427;SDS011;5770;44.504;11.346;2022-09-27T09:33:20;9.40;;;2.80;;
11427;SDS011;5770;44.504;11.346;2022-09-27T09:35:51;7.15;;;2.92;;
11427;SDS011;5770;44.504;11.346;2022-09-27T09:38:26;9.55;;;2.92;;
11427;SDS011;5770;44.504;11.346;2022-09-27T09:41:02;9.77;;;3.03;;
11427;SDS011;5770;44.504;11.346;2022-09-27T09:43:36;11.38;;;2.85;;
11427;SDS011;5770;44.504;11.346;2022-09-27T09:46:09;6.65;;;3.13;;
11427;SDS011;5770;44.504;11.346;2022-09-27T09:48:43;10.75;;;3.08;;
11427;SDS011;5770;44.504;11.346;2022-09-27T09:51:14;7.90;;;2.63;;
11427;SDS011;5770;44.504;11.346;2022-09-27T09:53:48;9.65;;;2.90;;
11427;SDS011;5770;44.504;11.346;2022-09-27T09:56:19;5.45;;;2.80;;
11427;SDS011;5770;44.504;11.346;2022-09-27T09:58:52;11.93;;;2.75;;
11427;SDS011;5770;44.504;11.346;2022-09-27T10:01:24;5.70;;;2.90;;
11427;SDS011;5770;44.504;11.346;2022-09-27T10:03:53;8.25;;;2.85;;
11427;SDS011;5770;44.504;11.346;2022-09-27T10:06:21;9.35;;;3.70;;
11427;SDS011;5770;44.504;11.346;2022-09-27T10:08:49;8.68;;;2.55;;
11427;SDS011;5770;44.504;11.346;2022-09-27T10:11:20;6.57;;;2.42;;
11427;SDS011;5770;44.504;11.346;2022-09-27T10:13:51;12.68;;;3.67;;
11427;SDS011;5770;44.504;11.346;2022-09-27T10:16:19;10.50;;;3.58;;
11427;SDS011;5770;44.504;11.346;2022-09-27T10:18:47;5.68;;;3.05;;
11427;SDS011;5770;44.504;11.346;2022-09-27T10:21:18;9.30;;;4.28;;
11427;SDS011;5770;44.504;11.346;2022-09-27T10:24:04;10.82;;;3.22;;
11427;SDS011;5770;44.504;11.346;2022-09-27T10:26:34;7.78;;;2.80;;
11427;SDS011;5770;44.504;11.346;2022-09-27T10:29:19;8.93;;;3.33;;
11427;SDS011;5770;44.504;11.346;2022-09-27T10:31:49;8.27;;;3.30;;
11427;SDS011;5770;44.504;11.346;2022-09-27T10:34:19;8.27;;;3.00;;
11427;SDS011;5770;44.504;11.346;2022-09-27T10:37:00;10.43;;;3.03;;
11427;SDS011;5770;44.504;11.346;2022-09-27T10:39:42;9.88;;;3.38;;
11427;SDS011;5770;44.504;11.346;2022-09-27T10:42:20;8.57;;;3.00;;
11427;SDS011;5770;44.504;11.346;2022-09-27T10:44:57;5.95;;;2.75;;
11427;SDS011;5770;44.504;11.346;2022-09-27T10:47:44;5.45;;;2.30;;
11427;SDS011;5770;44.504;11.346;2022-09-27T10:50:15;5.70;;;2.60;;
11427;SDS011;5770;44.504;11.346;2022-09-27T10:52:46;6.05;;;2.55;;
11427;SDS011;5770;44.504;11.346;2022-09-27T10:55:19;9.90;;;2.55;;
11427;SDS011;5770;44.504;11.346;2022-09-27T10:57:49;7.03;;;2.40;;
11427;SDS011;5770;44.504;11.346;2022-09-27T11:00:21;5.63;;;2.45;;
11427;SDS011;5770;44.504;11.346;2022-09-27T11:02:50;7.88;;;2.88;;
11427;SDS011;5770;44.504;11.346;2022-09-27T11:05:28;7.30;;;2.78;;
11427;SDS011;5770;44.504;11.346;2022-09-27T11:07:58;9.13;;;2.90;;
11427;SDS011;5770;44.504;11.346;2022-09-27T11:10:28;9.95;;;2.60;;
11427;SDS011;5770;44.504;11.346;2022-09-27T11:13:07;5.20;;;2.28;;
11427;SDS011;5770;44.504;11.346;2022-09-27T11:15:43;8.52;;;3.10;;
11427;SDS011;5770;44.504;11.346;2022-09-27T11:18:29;7.88;;;3.20;;
11427;SDS011;5770;44.504;11.346;2022-09-27T11:21:08;4.72;;;2.58;;
11427;SDS011;5770;44.504;11.346;2022-09-27T11:23:40;9.85;;;3.83;;
11427;SDS011;5770;44.504;11.346;2022-09-27T11:26:27;7.28;;;2.80;;
11427;SDS011;5770;44.504;11.346;2022-09-27T11:29:06;6.97;;;2.25;;
11427;SDS011;5770;44.504;11.346;2022-09-27T11:31:47;6.25;;;2.45;;
11427;SDS011;5770;44.504;11.346;2022-09-27T11:34:39;6.90;;;2.45;;
11427;SDS011;5770;44.504;11.346;2022-09-27T11:37:14;12.93;;;2.88;;
11427;SDS011;5770;44.504;11.346;2022-09-27T11:39:49;6.38;;;2.65;;
11427;SDS011;5770;44.504;11.346;2022-09-27T11:45:25;10.57;;;3.20;;
11427;SDS011;5770;44.504;11.346;2022-09-27T11:48:04;8.15;;;3.20;;
11427;SDS011;5770;44.504;11.346;2022-09-27T11:53:45;7.28;;;2.50;;
11427;SDS011;5770;44.504;11.346;2022-09-27T11:56:27;5.13;;;2.70;;
11427;SDS011;5770;44.504;11.346;2022-09-27T11:59:07;7.00;;;3.28;;
11427;SDS011;5770;44.504;11.346;2022-09-27T12:01:52;4.72;;;2.45;;
11427;SDS011;5770;44.504;11.346;2022-09-27T12:04:32;4.72;;;2.63;;
11427;SDS011;5770;44.504;11.346;2022-09-27T12:07:10;5.93;;;2.38;;
11427;SDS011;5770;44.504;11.346;2022-09-27T12:09:42;6.10;;;2.75;;
11427;SDS011;5770;44.504;11.346;2022-09-27T12:12:14;10.00;;;3.03;;
11427;SDS011;5770;44.504;11.346;2022-09-27T12:14:46;7.35;;;2.88;;
11427;SDS011;5770;44.504;11.346;2022-09-27T12:17:16;5.85;;;2.78;;
11427;SDS011;5770;44.504;11.346;2022-09-27T12:19:48;7.97;;;2.78;;
11427;SDS011;5770;44.504;11.346;2022-09-27T12:22:18;8.02;;;2.33;;
11427;SDS011;5770;44.504;11.346;2022-09-27T12:24:50;8.50;;;2.70;;
11427;SDS011;5770;44.504;11.346;2022-09-27T12:27:20;4.20;;;2.30;;
11427;SDS011;5770;44.504;11.346;2022-09-27T12:30:02;5.88;;;2.28;;
11427;SDS011;5770;44.504;11.346;2022-09-27T12:32:31;4.93;;;2.15;;
11427;SDS011;5770;44.504;11.346;2022-09-27T12:35:05;8.40;;;2.55;;
11427;SDS011;5770;44.504;11.346;2022-09-27T12:37:36;5.28;;;2.13;;
11427;SDS011;5770;44.504;11.346;2022-09-27T12:40:12;6.00;;;2.42;;
11427;SDS011;5770;44.504;11.346;2022-09-27T12:42:43;4.28;;;1.98;;
11427;SDS011;5770;44.504;11.346;2022-09-27T12:45:15;3.90;;;1.83;;
11427;SDS011;5770;44.504;11.346;2022-09-27T12:47:57;7.32;;;2.05;;
11427;SDS011;5770;44.504;11.346;2022-09-27T12:50:33;4.70;;;2.00;;
11427;SDS011;5770;44.504;11.346;2022-09-27T12:53:07;4.18;;;1.75;;
11427;SDS011;5770;44.504;11.346;2022-09-27T12:58:33;6.25;;;2.42;;
11427;SDS011;5770;44.504;11.346;2022-09-27T13:01:29;4.65;;;2.13;;
11427;SDS011;5770;44.504;11.346;2022-09-27T13:04:08;2.90;;;1.55;;
11427;SDS011;5770;44.504;11.346;2022-09-27T13:06:52;5.28;;;1.70;;
11427;SDS011;5770;44.504;11.346;2022-09-27T13:12:31;3.15;;;1.58;;
11427;SDS011;5770;44.504;11.346;2022-09-27T13:14:59;3.40;;;1.30;;
11427;SDS011;5770;44.504;11.346;2022-09-27T13:17:46;5.10;;;1.60;;
11427;SDS011;5770;44.504;11.346;2022-09-27T13:34:48;3.45;;;1.40;;
11427;SDS011;5770;44.504;11.346;2022-09-27T13:37:21;6.15;;;1.45;;
11427;SDS011;5770;44.504;11.346;2022-09-27T13:40:15;10.40;;;1.80;;
11427;SDS011;5770;44.504;11.346;2022-09-27T13:45:53;9.80;;;1.80;;
11427;SDS011;5770;44.504;11.346;2022-09-27T13:48:25;4.40;;;1.50;;
11427;SDS011;5770;44.504;11.346;2022-09-27T13:50:57;4.07;;;1.30;;
11427;SDS011;5770;44.504;11.346;2022-09-27T13:53:28;4.38;;;1.45;;
11427;SDS011;5770;44.504;11.346;2022-09-27T13:55:59;3.25;;;1.40;;
11427;SDS011;5770;44.504;11.346;2022-09-27T13:58:42;4.78;;;1.55;;
11427;SDS011;5770;44.504;11.346;2022-09-27T14:01:16;1.90;;;1.27;;
11427;SDS011;5770;44.504;11.346;2022-09-27T14:03:52;2.50;;;1.23;;
11427;SDS011;5770;44.504;11.346;2022-09-27T14:06:23;2.67;;;1.23;;
11427;SDS011;5770;44.504;11.346;2022-09-27T14:08:52;3.53;;;1.35;;
11427;SDS011;5770;44.504;11.346;2022-09-27T14:11:23;3.40;;;1.27;;
11427;SDS011;5770;44.504;11.346;2022-09-27T14:13:54;5.78;;;1.40;;
11427;SDS011;5770;44.504;11.346;2022-09-27T14:16:23;5.75;;;1.60;;
11427;SDS011;5770;44.504;11.346;2022-09-27T14:18:52;6.63;;;1.50;;
11427;SDS011;5770;44.504;11.346;2022-09-27T14:21:26;6.88;;;1.40;;
11427;SDS011;5770;44.504;11.346;2022-09-27T14:26:37;4.35;;;1.42;;
11427;SDS011;5770;44.504;11.346;2022-09-27T14:29:15;5.07;;;1.77;;
11427;SDS011;5770;44.504;11.346;2022-09-27T14:31:42;6.60;;;2.15;;
11427;SDS011;5770;44.504;11.346;2022-09-27T14:34:11;4.15;;;1.30;;
11427;SDS011;5770;44.504;11.346;2022-09-27T14:36:38;2.95;;;1.45;;
11427;SDS011;5770;44.504;11.346;2022-09-27T14:39:24;6.00;;;1.80;;
11427;SDS011;5770;44.504;11.346;2022-09-27T14:41:56;4.25;;;1.30;;
11427;SDS011;5770;44.504;11.346;2022-09-27T14:44:25;6.50;;;1.73;;
11427;SDS011;5770;44.504;11.346;2022-09-27T14:47:06;4.88;;;1.90;;
11427;SDS011;5770;44.504;11.346;2022-09-27T14:49:34;4.90;;;1.60;;
11427;SDS011;5770;44.504;11.346;2022-09-27T14:52:13;7.28;;;1.80;;
11427;SDS011;5770;44.504;11.346;2022-09-27T14:54:43;4.55;;;1.63;;
11427;SDS011;5770;44.504;11.346;2022-09-27T14:57:11;4.03;;;1.52;;
11427;SDS011;5770;44.504;11.346;2022-09-27T14:59:42;4.72;;;1.67;;
11427;SDS011;5770;44.504;11.346;2022-09-27T15:02:14;4.10;;;1.60;;
11427;SDS011;5770;44.504;11.346;2022-09-27T15:04:46;4.80;;;1.88;;
11427;SDS011;5770;44.504;11.346;2022-09-27T15:07:15;6.97;;;2.00;;
11427;SDS011;5770;44.504;11.346;2022-09-27T15:09:43;6.45;;;1.73;;
11427;SDS011;5770;44.504;11.346;2022-09-27T15:12:11;7.13;;;1.75;;
11427;SDS011;5770;44.504;11.346;2022-09-27T15:14:39;6.13;;;1.70;;
11427;SDS011;5770;44.504;11.346;2022-09-27T15:17:14;7.85;;;1.58;;
11427;SDS011;5770;44.504;11.346;2022-09-27T15:20:00;5.55;;;1.50;;
11427;SDS011;5770;44.504;11.346;2022-09-27T15:22:33;7.93;;;2.88;;
11427;SDS011;5770;44.504;11.346;2022-09-27T15:25:10;5.80;;;1.98;;
11427;SDS011;5770;44.504;11.346;2022-09-27T15:27:45;5.63;;;1.65;;
11427;SDS011;5770;44.504;11.346;2022-09-27T15:30:19;7.90;;;2.00;;
11427;SDS011;5770;44.504;11.346;2022-09-27T15:32:52;6.45;;;1.65;;
11427;SDS011;5770;44.504;11.346;2022-09-27T15:35:25;5.43;;;2.13;;
11427;SDS011;5770;44.504;11.346;2022-09-27T15:43:35;7.65;;;2.70;;
11427;SDS011;5770;44.504;11.346;2022-09-27T15:51:49;6.85;;;1.50;;
11427;SDS011;5770;44.504;11.346;2022-09-27T15:54:17;4.40;;;1.63;;
11427;SDS011;5770;44.504;11.346;2022-09-27T15:56:45;4.93;;;1.90;;
11427;SDS011;5770;44.504;11.346;2022-09-27T15:59:18;6.00;;;1.88;;
11427;SDS011;5770;44.504;11.346;2022-09-27T16:01:47;11.20;;;2.17;;
11427;SDS011;5770;44.504;11.346;2022-09-27T16:04:16;5.13;;;1.75;;